PWSweather.com
Personal Weather Stations
Station Observations
J24K28P63
Vysocina, PocatkyCZ 39464

VysocinaPocatkyCZ 39464

Lat: 49.2594238, Lon: 15.2331769

Elevation: 2011

Station Type: Vantage Pro2+

http://meteo-jirkalina.com

High Low Average
Temperature 66.0°F18.9°C 47.9°F8.8°C 56.2°F13.4°C
Dew Point 54.5°F12.5°C 46.0°F7.8°C 49.5°F9.7°C
Winds 9.0 mph 14.5 kmh Calm Calm 4.0 mph SW6.4 kmh SW
Wind Gusts 17.0 mph27.4 kmh -- 6.0 mph9.7 kmh
Humidity 100% 58% 79%
Pressure 29.90 in1012.5 mb 29.67 in1004.7 mb -
Precipitation 0.01 in0.3 mm - -
Hour Temp Dew Point Humidity Winds Wind Gusts Pressure Precip Precip Rate Daily Precip Total
12:00 AM 56.2°F13.4°C 50.4°F10.2°C 81% 3.0 mph S4.8 kmh S 7.0 mph11.3 kmh 29.69 in1005.4 mb 0.00 in0.0 mm 0.00 in0.0 mm 0.00 in0.0 mm
12:10 AM 55.8°F13.2°C 50.1°F10.1°C 81% 6.0 mph WSW9.7 kmh WSW 7.0 mph11.3 kmh 29.68 in1005.1 mb 0.00 in0.0 mm 0.00 in0.0 mm 0.00 in0.0 mm
12:20 AM 55.3°F12.9°C 49.9°F9.9°C 82% 3.0 mph SW4.8 kmh SW 8.0 mph12.9 kmh 29.69 in1005.4 mb 0.00 in0.0 mm 0.00 in0.0 mm 0.00 in0.0 mm
12:30 AM 54.9°F12.7°C 49.9°F9.9°C 83% 2.0 mph SW3.2 kmh SW 5.0 mph8.0 kmh 29.69 in1005.4 mb 0.00 in0.0 mm 0.00 in0.0 mm 0.00 in0.0 mm
12:40 AM 54.4°F12.4°C 49.4°F9.7°C 83% 2.0 mph SW3.2 kmh SW 3.0 mph4.8 kmh 29.69 in1005.4 mb 0.00 in0.0 mm 0.00 in0.0 mm 0.00 in0.0 mm
12:50 AM 54.0°F12.2°C 49.0°F9.4°C 83% 2.0 mph SW3.2 kmh SW 3.0 mph4.8 kmh 29.69 in1005.4 mb 0.00 in0.0 mm 0.00 in0.0 mm 0.00 in0.0 mm
01:00 AM 53.6°F12.0°C 48.9°F9.4°C 84% Calm Calm 2.0 mph3.2 kmh 29.69 in1005.4 mb 0.00 in0.0 mm 0.00 in0.0 mm 0.00 in0.0 mm
01:10 AM 52.4°F11.3°C 48.4°F9.1°C 86% Calm Calm 1.0 mph1.6 kmh 29.69 in1005.4 mb 0.00 in0.0 mm 0.00 in0.0 mm 0.00 in0.0 mm
01:20 AM 52.1°F11.2°C 48.3°F9.1°C 87% 3.0 mph SW4.8 kmh SW 6.0 mph9.7 kmh 29.69 in1005.4 mb 0.00 in0.0 mm 0.00 in0.0 mm 0.00 in0.0 mm
01:30 AM 52.9°F11.6°C 48.5°F9.2°C 85% 3.0 mph SW4.8 kmh SW 6.0 mph9.7 kmh 29.69 in1005.4 mb 0.00 in0.0 mm 0.00 in0.0 mm 0.00 in0.0 mm
01:40 AM 53.3°F11.8°C 48.6°F9.2°C 84% 5.0 mph SSW8.0 kmh SSW 9.0 mph14.5 kmh 29.69 in1005.4 mb 0.00 in0.0 mm 0.00 in0.0 mm 0.00 in0.0 mm
01:50 AM 53.3°F11.8°C 48.3°F9.1°C 83% 3.0 mph SW4.8 kmh SW 6.0 mph9.7 kmh 29.69 in1005.4 mb 0.00 in0.0 mm 0.00 in0.0 mm 0.00 in0.0 mm
02:00 AM 53.2°F11.8°C 48.2°F9.0°C 83% 3.0 mph SW4.8 kmh SW 7.0 mph11.3 kmh 29.69 in1005.4 mb 0.00 in0.0 mm 0.00 in0.0 mm 0.00 in0.0 mm
02:10 AM 53.0°F11.7°C 48.3°F9.1°C 84% 3.0 mph SW4.8 kmh SW 7.0 mph11.3 kmh 29.69 in1005.4 mb 0.00 in0.0 mm 0.00 in0.0 mm 0.00 in0.0 mm
02:20 AM 53.2°F11.8°C 48.2°F9.0°C 83% 5.0 mph SW8.0 kmh SW 12.0 mph19.3 kmh 29.69 in1005.4 mb 0.00 in0.0 mm 0.00 in0.0 mm 0.00 in0.0 mm
02:30 AM 53.3°F11.8°C 48.3°F9.1°C 83% 2.0 mph SW3.2 kmh SW 3.0 mph4.8 kmh 29.69 in1005.4 mb 0.00 in0.0 mm 0.00 in0.0 mm 0.00 in0.0 mm
02:40 AM 52.7°F11.5°C 47.7°F8.7°C 83% 3.0 mph SW4.8 kmh SW 3.0 mph4.8 kmh 29.70 in1005.8 mb 0.00 in0.0 mm 0.00 in0.0 mm 0.00 in0.0 mm
02:50 AM 52.5°F11.4°C 47.8°F8.8°C 84% 3.0 mph SW4.8 kmh SW 7.0 mph11.3 kmh 29.69 in1005.4 mb 0.00 in0.0 mm 0.00 in0.0 mm 0.00 in0.0 mm
03:00 AM 52.6°F11.4°C 47.9°F8.8°C 84% 2.0 mph SW3.2 kmh SW 5.0 mph8.0 kmh 29.69 in1005.4 mb 0.00 in0.0 mm 0.00 in0.0 mm 0.00 in0.0 mm
03:10 AM 52.6°F11.4°C 47.9°F8.8°C 84% Calm Calm 2.0 mph3.2 kmh 29.70 in1005.8 mb 0.00 in0.0 mm 0.00 in0.0 mm 0.00 in0.0 mm
03:20 AM 52.4°F11.3°C 47.7°F8.7°C 84% Calm Calm -- 29.70 in1005.8 mb 0.00 in0.0 mm 0.00 in0.0 mm 0.00 in0.0 mm
03:30 AM 52.1°F11.2°C 47.4°F8.6°C 84% Calm Calm 1.0 mph1.6 kmh 29.70 in1005.8 mb 0.00 in0.0 mm 0.00 in0.0 mm 0.00 in0.0 mm
03:40 AM 51.6°F10.9°C 46.9°F8.3°C 84% Calm Calm 3.0 mph4.8 kmh 29.69 in1005.4 mb 0.00 in0.0 mm 0.00 in0.0 mm 0.00 in0.0 mm
03:50 AM 51.2°F10.7°C 46.5°F8.1°C 84% 2.0 mph SW3.2 kmh SW 3.0 mph4.8 kmh 29.69 in1005.4 mb 0.00 in0.0 mm 0.00 in0.0 mm 0.00 in0.0 mm
04:00 AM 51.1°F10.6°C 46.8°F8.2°C 85% 3.0 mph SW4.8 kmh SW 5.0 mph8.0 kmh 29.69 in1005.4 mb 0.00 in0.0 mm 0.00 in0.0 mm 0.00 in0.0 mm
04:10 AM 51.2°F10.7°C 46.9°F8.3°C 85% 1.0 mph SW1.6 kmh SW 3.0 mph4.8 kmh 29.69 in1005.4 mb 0.00 in0.0 mm 0.00 in0.0 mm 0.00 in0.0 mm
04:20 AM 51.3°F10.7°C 47.3°F8.5°C 86% Calm Calm 2.0 mph3.2 kmh 29.69 in1005.4 mb 0.00 in0.0 mm 0.00 in0.0 mm 0.00 in0.0 mm
04:30 AM 51.2°F10.7°C 47.2°F8.4°C 86% Calm Calm 3.0 mph4.8 kmh 29.70 in1005.8 mb 0.00 in0.0 mm 0.00 in0.0 mm 0.00 in0.0 mm
04:40 AM 51.0°F10.6°C 46.9°F8.3°C 86% Calm Calm -- 29.70 in1005.8 mb 0.00 in0.0 mm 0.00 in0.0 mm 0.00 in0.0 mm
04:50 AM 50.5°F10.3°C 46.5°F8.1°C 86% 1.0 mph SW1.6 kmh SW 1.0 mph1.6 kmh 29.70 in1005.8 mb 0.00 in0.0 mm 0.00 in0.0 mm 0.00 in0.0 mm
05:00 AM 50.0°F10.0°C 46.0°F7.8°C 86% 2.0 mph SW3.2 kmh SW 3.0 mph4.8 kmh 29.70 in1005.8 mb 0.00 in0.0 mm 0.00 in0.0 mm 0.00 in0.0 mm
05:10 AM 49.9°F9.9°C 46.2°F7.9°C 87% 1.0 mph SW1.6 kmh SW 3.0 mph4.8 kmh 29.71 in1006.1 mb 0.00 in0.0 mm 0.00 in0.0 mm 0.00 in0.0 mm
05:20 AM 49.9°F9.9°C 46.2°F7.9°C 87% 1.0 mph SW1.6 kmh SW 2.0 mph3.2 kmh 29.70 in1005.8 mb 0.00 in0.0 mm 0.00 in0.0 mm 0.00 in0.0 mm
05:30 AM 50.0°F10.0°C 46.3°F7.9°C 87% 3.0 mph SW4.8 kmh SW 7.0 mph11.3 kmh 29.70 in1005.8 mb 0.00 in0.0 mm 0.00 in0.0 mm 0.00 in0.0 mm
05:40 AM 50.2°F10.1°C 46.8°F8.2°C 88% 2.0 mph SW3.2 kmh SW 6.0 mph9.7 kmh 29.70 in1005.8 mb 0.00 in0.0 mm 0.00 in0.0 mm 0.00 in0.0 mm
05:50 AM 50.4°F10.2°C 47.0°F8.3°C 88% 1.0 mph SSW1.6 kmh SSW 2.0 mph3.2 kmh 29.71 in1006.1 mb - 0.00 in0.0 mm 0.00 in0.0 mm
06:00 AM 50.5°F10.3°C 46.8°F8.2°C 87% Calm Calm -- 29.71 in1006.1 mb - 0.00 in0.0 mm 0.00 in0.0 mm
06:10 AM 50.3°F10.2°C 46.6°F8.1°C 87% Calm Calm -- 29.71 in1006.1 mb - 0.00 in0.0 mm 0.00 in0.0 mm
06:20 AM 50.1°F10.1°C 46.4°F8.0°C 87% Calm Calm -- 29.70 in1005.8 mb - 0.00 in0.0 mm 0.00 in0.0 mm
06:30 AM 49.8°F9.9°C 46.1°F7.8°C 87% 1.0 mph SSW1.6 kmh SSW 2.0 mph3.2 kmh 29.70 in1005.8 mb - 0.00 in0.0 mm 0.00 in0.0 mm
06:40 AM 49.9°F9.9°C 46.5°F8.1°C 88% Calm Calm -- 29.71 in1006.1 mb - 0.00 in0.0 mm 0.00 in0.0 mm
06:50 AM 50.5°F10.3°C 47.1°F8.4°C 88% Calm Calm 3.0 mph4.8 kmh 29.71 in1006.1 mb - 0.00 in0.0 mm 0.00 in0.0 mm
07:00 AM 51.4°F10.8°C 48.3°F9.1°C 89% 1.0 mph SSW1.6 kmh SSW 2.0 mph3.2 kmh 29.71 in1006.1 mb - 0.00 in0.0 mm 0.00 in0.0 mm
07:10 AM 52.6°F11.4°C 49.4°F9.7°C 89% 2.0 mph SSW3.2 kmh SSW 3.0 mph4.8 kmh 29.71 in1006.1 mb - 0.00 in0.0 mm 0.00 in0.0 mm
07:20 AM 53.9°F12.2°C 50.4°F10.2°C 88% 3.0 mph SSW4.8 kmh SSW 5.0 mph8.0 kmh 29.71 in1006.1 mb - 0.00 in0.0 mm 0.00 in0.0 mm
07:30 AM 55.4°F13.0°C 51.6°F10.9°C 87% 6.0 mph WSW9.7 kmh WSW 10.0 mph16.1 kmh 29.71 in1006.1 mb - 0.00 in0.0 mm 0.00 in0.0 mm
07:40 AM 56.5°F13.6°C 51.0°F10.6°C 82% 5.0 mph WSW8.0 kmh WSW 9.0 mph14.5 kmh 29.71 in1006.1 mb - 0.00 in0.0 mm 0.00 in0.0 mm
07:50 AM 57.7°F14.3°C 51.3°F10.7°C 79% 5.0 mph WSW8.0 kmh WSW 7.0 mph11.3 kmh 29.71 in1006.1 mb - 0.00 in0.0 mm 0.00 in0.0 mm
08:00 AM 59.3°F15.2°C 52.1°F11.2°C 77% 3.0 mph SW4.8 kmh SW 6.0 mph9.7 kmh 29.71 in1006.1 mb - 0.00 in0.0 mm 0.00 in0.0 mm
08:10 AM 60.4°F15.8°C 51.3°F10.7°C 72% 6.0 mph WSW9.7 kmh WSW 8.0 mph12.9 kmh 29.71 in1006.1 mb - 0.00 in0.0 mm 0.00 in0.0 mm
08:20 AM 60.7°F15.9°C 50.9°F10.5°C 70% 6.0 mph SW9.7 kmh SW 12.0 mph19.3 kmh 29.72 in1006.4 mb - 0.00 in0.0 mm 0.00 in0.0 mm
08:30 AM 61.2°F16.2°C 51.0°F10.6°C 69% 8.0 mph WSW12.9 kmh WSW 10.0 mph16.1 kmh 29.71 in1006.1 mb - 0.00 in0.0 mm 0.00 in0.0 mm
08:40 AM 61.7°F16.5°C 50.6°F10.3°C 67% 7.0 mph SW11.3 kmh SW 10.0 mph16.1 kmh 29.72 in1006.4 mb - 0.00 in0.0 mm 0.00 in0.0 mm
08:50 AM 61.6°F16.4°C 50.6°F10.3°C 67% 6.0 mph WSW9.7 kmh WSW 7.0 mph11.3 kmh 29.72 in1006.4 mb - 0.00 in0.0 mm 0.00 in0.0 mm
09:00 AM 61.8°F16.6°C 51.1°F10.6°C 68% 5.0 mph W8.0 kmh W 10.0 mph16.1 kmh 29.72 in1006.4 mb - 0.00 in0.0 mm 0.00 in0.0 mm
09:10 AM 62.0°F16.7°C 51.3°F10.7°C 68% 5.0 mph W8.0 kmh W 6.0 mph9.7 kmh 29.73 in1006.8 mb - 0.00 in0.0 mm 0.00 in0.0 mm
09:20 AM 61.9°F16.6°C 51.2°F10.7°C 68% 6.0 mph WSW9.7 kmh WSW 13.0 mph20.9 kmh 29.73 in1006.8 mb - 0.00 in0.0 mm 0.00 in0.0 mm
09:30 AM 61.6°F16.4°C 50.6°F10.3°C 67% 6.0 mph SW9.7 kmh SW 8.0 mph12.9 kmh 29.73 in1006.8 mb - 0.00 in0.0 mm 0.00 in0.0 mm
09:40 AM 61.5°F16.4°C 51.2°F10.7°C 69% 6.0 mph WSW9.7 kmh WSW 9.0 mph14.5 kmh 29.74 in1007.1 mb - 0.00 in0.0 mm 0.00 in0.0 mm
09:50 AM 61.5°F16.4°C 51.2°F10.7°C 69% 7.0 mph WSW11.3 kmh WSW 12.0 mph19.3 kmh 29.73 in1006.8 mb - 0.00 in0.0 mm 0.00 in0.0 mm
10:00 AM 62.0°F16.7°C 50.9°F10.5°C 67% 7.0 mph WSW11.3 kmh WSW 10.0 mph16.1 kmh 29.73 in1006.8 mb - 0.00 in0.0 mm 0.00 in0.0 mm
10:10 AM 61.5°F16.4°C 50.4°F10.2°C 67% 6.0 mph WSW9.7 kmh WSW 9.0 mph14.5 kmh 29.74 in1007.1 mb - 0.00 in0.0 mm 0.00 in0.0 mm
10:20 AM 62.5°F16.9°C 51.8°F11.0°C 68% 5.0 mph WSW8.0 kmh WSW 7.0 mph11.3 kmh 29.74 in1007.1 mb - 0.00 in0.0 mm 0.00 in0.0 mm
10:30 AM 65.2°F18.4°C 52.7°F11.5°C 64% 5.0 mph SW8.0 kmh SW 6.0 mph9.7 kmh 29.74 in1007.1 mb - 0.00 in0.0 mm 0.00 in0.0 mm
10:40 AM 63.8°F17.7°C 51.0°F10.6°C 63% 2.0 mph SW3.2 kmh SW 5.0 mph8.0 kmh 29.74 in1007.1 mb - 0.00 in0.0 mm 0.00 in0.0 mm
10:50 AM 64.7°F18.2°C 52.2°F11.2°C 64% 5.0 mph SW8.0 kmh SW 8.0 mph12.9 kmh 29.74 in1007.1 mb - 0.00 in0.0 mm 0.00 in0.0 mm
11:00 AM 63.4°F17.4°C 51.8°F11.0°C 66% 3.0 mph SW4.8 kmh SW 6.0 mph9.7 kmh 29.75 in1007.5 mb - 0.00 in0.0 mm 0.00 in0.0 mm
11:10 AM 62.1°F16.7°C 51.4°F10.8°C 68% 3.0 mph SW4.8 kmh SW 6.0 mph9.7 kmh 29.75 in1007.5 mb - 0.00 in0.0 mm 0.00 in0.0 mm
11:20 AM 61.8°F16.6°C 51.9°F11.1°C 70% 1.0 mph SW1.6 kmh SW 6.0 mph9.7 kmh 29.75 in1007.5 mb - 0.00 in0.0 mm 0.00 in0.0 mm
11:30 AM 61.9°F16.6°C 51.2°F10.7°C 68% 5.0 mph SSW8.0 kmh SSW 7.0 mph11.3 kmh 29.75 in1007.5 mb - 0.00 in0.0 mm 0.00 in0.0 mm
11:40 AM 61.9°F16.6°C 51.2°F10.7°C 68% 5.0 mph SSW8.0 kmh SSW 6.0 mph9.7 kmh 29.75 in1007.5 mb - 0.00 in0.0 mm 0.00 in0.0 mm
11:50 AM 62.3°F16.8°C 50.8°F10.4°C 66% 5.0 mph SW8.0 kmh SW 9.0 mph14.5 kmh 29.76 in1007.8 mb - 0.00 in0.0 mm 0.00 in0.0 mm
12:00 PM 62.8°F17.1°C 51.2°F10.7°C 66% 5.0 mph SSW8.0 kmh SSW 9.0 mph14.5 kmh 29.76 in1007.8 mb - 0.00 in0.0 mm 0.00 in0.0 mm
12:10 PM 62.3°F16.8°C 50.4°F10.2°C 65% 7.0 mph SW11.3 kmh SW 12.0 mph19.3 kmh 29.76 in1007.8 mb - 0.00 in0.0 mm 0.00 in0.0 mm
12:20 PM 61.6°F16.4°C 50.5°F10.3°C 67% 9.0 mph SW14.5 kmh SW 13.0 mph20.9 kmh 29.77 in1008.1 mb - 0.00 in0.0 mm 0.00 in0.0 mm
12:30 PM 61.5°F16.4°C 50.5°F10.3°C 67% 6.0 mph SW9.7 kmh SW 10.0 mph16.1 kmh 29.77 in1008.1 mb - 0.00 in0.0 mm 0.00 in0.0 mm
12:40 PM 61.6°F16.4°C 50.5°F10.3°C 67% 8.0 mph SSW12.9 kmh SSW 12.0 mph19.3 kmh 29.77 in1008.1 mb - 0.00 in0.0 mm 0.00 in0.0 mm
12:50 PM 62.3°F16.8°C 51.2°F10.7°C 67% 8.0 mph SSW12.9 kmh SSW 12.0 mph19.3 kmh 29.78 in1008.5 mb - 0.00 in0.0 mm 0.00 in0.0 mm
01:00 PM 63.0°F17.2°C 51.5°F10.8°C 66% 7.0 mph S11.3 kmh S 12.0 mph19.3 kmh 29.77 in1008.1 mb - 0.00 in0.0 mm 0.00 in0.0 mm
01:10 PM 63.2°F17.3°C 51.2°F10.7°C 65% 6.0 mph SSW9.7 kmh SSW 10.0 mph16.1 kmh 29.77 in1008.1 mb - 0.00 in0.0 mm 0.00 in0.0 mm
01:20 PM 63.7°F17.6°C 52.1°F11.2°C 66% 7.0 mph SW11.3 kmh SW 17.0 mph27.4 kmh 29.77 in1008.1 mb - 0.00 in0.0 mm 0.00 in0.0 mm
01:30 PM 63.2°F17.3°C 51.2°F10.7°C 65% 7.0 mph SSW11.3 kmh SSW 10.0 mph16.1 kmh 29.77 in1008.1 mb - 0.00 in0.0 mm 0.00 in0.0 mm
01:40 PM 62.2°F16.8°C 51.1°F10.6°C 67% 7.0 mph SW11.3 kmh SW 10.0 mph16.1 kmh 29.78 in1008.5 mb - 0.00 in0.0 mm 0.00 in0.0 mm
01:50 PM 59.5°F15.3°C 52.9°F11.6°C 79% 5.0 mph SSW8.0 kmh SSW 8.0 mph12.9 kmh 29.78 in1008.5 mb - 0.00 in0.0 mm 0.00 in0.0 mm
02:00 PM 58.1°F14.5°C 53.0°F11.7°C 83% 3.0 mph S4.8 kmh S 6.0 mph9.7 kmh 29.77 in1008.1 mb - 0.00 in0.0 mm 0.00 in0.0 mm
02:10 PM 59.1°F15.1°C 53.6°F12.0°C 82% 3.0 mph S4.8 kmh S 3.0 mph4.8 kmh 29.78 in1008.5 mb - 0.00 in0.0 mm 0.00 in0.0 mm
02:20 PM 61.8°F16.6°C 54.5°F12.5°C 77% 5.0 mph S8.0 kmh S 8.0 mph12.9 kmh 29.77 in1008.1 mb - 0.00 in0.0 mm 0.00 in0.0 mm
02:30 PM 62.8°F17.1°C 52.9°F11.6°C 70% 7.0 mph SSW11.3 kmh SSW 9.0 mph14.5 kmh 29.77 in1008.1 mb - 0.00 in0.0 mm 0.00 in0.0 mm
02:40 PM 62.8°F17.1°C 52.4°F11.3°C 69% 8.0 mph SW12.9 kmh SW 12.0 mph19.3 kmh 29.77 in1008.1 mb - 0.00 in0.0 mm 0.00 in0.0 mm
02:50 PM 63.6°F17.6°C 52.4°F11.3°C 67% 6.0 mph SW9.7 kmh SW 12.0 mph19.3 kmh 29.77 in1008.1 mb - 0.00 in0.0 mm 0.00 in0.0 mm
03:00 PM 65.4°F18.6°C 53.3°F11.8°C 65% 6.0 mph SW9.7 kmh SW 12.0 mph19.3 kmh 29.77 in1008.1 mb - 0.00 in0.0 mm 0.00 in0.0 mm
03:10 PM 66.0°F18.9°C 53.1°F11.7°C 63% 7.0 mph S11.3 kmh S 10.0 mph16.1 kmh 29.77 in1008.1 mb - 0.00 in0.0 mm 0.00 in0.0 mm
03:20 PM 65.4°F18.6°C 52.0°F11.1°C 62% 5.0 mph S8.0 kmh S 8.0 mph12.9 kmh 29.77 in1008.1 mb - 0.00 in0.0 mm 0.00 in0.0 mm
03:30 PM 64.8°F18.2°C 52.3°F11.3°C 64% 5.0 mph SW8.0 kmh SW 10.0 mph16.1 kmh 29.77 in1008.1 mb - 0.00 in0.0 mm 0.00 in0.0 mm
03:40 PM 65.5°F18.6°C 52.1°F11.2°C 62% 7.0 mph SW11.3 kmh SW 12.0 mph19.3 kmh 29.77 in1008.1 mb - 0.00 in0.0 mm 0.00 in0.0 mm
03:50 PM 65.8°F18.8°C 50.6°F10.3°C 58% 8.0 mph SSW12.9 kmh SSW 12.0 mph19.3 kmh 29.77 in1008.1 mb - 0.00 in0.0 mm 0.00 in0.0 mm
04:00 PM 65.7°F18.7°C 51.0°F10.6°C 59% 8.0 mph SW12.9 kmh SW 14.0 mph22.5 kmh 29.77 in1008.1 mb - 0.00 in0.0 mm 0.00 in0.0 mm
04:10 PM 65.3°F18.5°C 50.6°F10.3°C 59% 8.0 mph SW12.9 kmh SW 12.0 mph19.3 kmh 29.77 in1008.1 mb - 0.00 in0.0 mm 0.00 in0.0 mm
04:20 PM 65.0°F18.3°C 51.2°F10.7°C 61% 7.0 mph SSW11.3 kmh SSW 12.0 mph19.3 kmh 29.78 in1008.5 mb - 0.00 in0.0 mm 0.00 in0.0 mm
04:30 PM 64.8°F18.2°C 50.6°F10.3°C 60% 8.0 mph SSW12.9 kmh SSW 14.0 mph22.5 kmh 29.78 in1008.5 mb - 0.00 in0.0 mm 0.00 in0.0 mm
04:40 PM 64.6°F18.1°C 50.4°F10.2°C 60% 7.0 mph SSW11.3 kmh SSW 10.0 mph16.1 kmh 29.78 in1008.5 mb - 0.00 in0.0 mm 0.00 in0.0 mm
04:50 PM 64.1°F17.8°C 50.8°F10.4°C 62% 7.0 mph SW11.3 kmh SW 9.0 mph14.5 kmh 29.78 in1008.5 mb - 0.00 in0.0 mm 0.00 in0.0 mm
05:00 PM 63.8°F17.7°C 51.0°F10.6°C 63% 3.0 mph SSW4.8 kmh SSW 6.0 mph9.7 kmh 29.78 in1008.5 mb - 0.00 in0.0 mm 0.00 in0.0 mm
05:10 PM 63.6°F17.6°C 50.8°F10.4°C 63% 5.0 mph SW8.0 kmh SW 8.0 mph12.9 kmh 29.78 in1008.5 mb - 0.00 in0.0 mm 0.00 in0.0 mm
05:20 PM 63.6°F17.6°C 51.2°F10.7°C 64% 5.0 mph SSW8.0 kmh SSW 10.0 mph16.1 kmh 29.78 in1008.5 mb - 0.00 in0.0 mm 0.00 in0.0 mm
05:30 PM 63.4°F17.4°C 51.1°F10.6°C 64% 5.0 mph SW8.0 kmh SW 9.0 mph14.5 kmh 29.78 in1008.5 mb - 0.00 in0.0 mm 0.00 in0.0 mm
05:40 PM 62.7°F17.1°C 50.7°F10.4°C 65% 5.0 mph SW8.0 kmh SW 7.0 mph11.3 kmh 29.78 in1008.5 mb - 0.00 in0.0 mm 0.00 in0.0 mm
05:50 PM 61.8°F16.6°C 50.7°F10.4°C 67% 2.0 mph SW3.2 kmh SW 5.0 mph8.0 kmh 29.78 in1008.5 mb - 0.00 in0.0 mm 0.00 in0.0 mm
06:00 PM 61.7°F16.5°C 50.6°F10.3°C 67% 7.0 mph SW11.3 kmh SW 9.0 mph14.5 kmh 29.79 in1008.8 mb - 0.00 in0.0 mm 0.00 in0.0 mm
06:10 PM 61.7°F16.5°C 50.6°F10.3°C 67% 7.0 mph SW11.3 kmh SW 14.0 mph22.5 kmh 29.79 in1008.8 mb 0.00 in0.0 mm 0.00 in0.0 mm 0.00 in0.0 mm
06:20 PM 61.4°F16.3°C 50.3°F10.2°C 67% 7.0 mph WSW11.3 kmh WSW 13.0 mph20.9 kmh 29.79 in1008.8 mb 0.00 in0.0 mm 0.00 in0.0 mm 0.00 in0.0 mm
06:30 PM 60.5°F15.8°C 51.0°F10.6°C 71% 5.0 mph SW8.0 kmh SW 8.0 mph12.9 kmh 29.80 in1009.1 mb 0.00 in0.0 mm 0.00 in0.0 mm 0.00 in0.0 mm
06:40 PM 59.5°F15.3°C 50.9°F10.5°C 73% 5.0 mph SW8.0 kmh SW 7.0 mph11.3 kmh 29.80 in1009.1 mb 0.00 in0.0 mm 0.00 in0.0 mm 0.00 in0.0 mm
06:50 PM 58.8°F14.9°C 50.2°F10.1°C 73% 2.0 mph SW3.2 kmh SW 7.0 mph11.3 kmh 29.80 in1009.1 mb 0.00 in0.0 mm 0.00 in0.0 mm 0.00 in0.0 mm
07:00 PM 57.9°F14.4°C 49.6°F9.8°C 74% 3.0 mph SW4.8 kmh SW 9.0 mph14.5 kmh 29.81 in1009.5 mb 0.00 in0.0 mm 0.00 in0.0 mm 0.00 in0.0 mm
07:10 PM 57.2°F14.0°C 48.9°F9.4°C 74% 5.0 mph SW8.0 kmh SW 6.0 mph9.7 kmh 29.81 in1009.5 mb 0.00 in0.0 mm 0.00 in0.0 mm 0.00 in0.0 mm
07:20 PM 56.4°F13.6°C 48.9°F9.4°C 76% 2.0 mph SW3.2 kmh SW 3.0 mph4.8 kmh 29.82 in1009.8 mb 0.00 in0.0 mm 0.00 in0.0 mm 0.00 in0.0 mm
07:30 PM 55.7°F13.2°C 48.6°F9.2°C 77% 2.0 mph SSW3.2 kmh SSW 3.0 mph4.8 kmh 29.82 in1009.8 mb 0.00 in0.0 mm 0.00 in0.0 mm 0.00 in0.0 mm
07:40 PM 55.2°F12.9°C 48.8°F9.3°C 79% 2.0 mph SSW3.2 kmh SSW 3.0 mph4.8 kmh 29.83 in1010.2 mb 0.00 in0.0 mm 0.00 in0.0 mm 0.00 in0.0 mm
07:50 PM 54.8°F12.7°C 48.7°F9.3°C 80% 3.0 mph SSW4.8 kmh SSW 7.0 mph11.3 kmh 29.83 in1010.2 mb 0.00 in0.0 mm 0.00 in0.0 mm 0.00 in0.0 mm
08:00 PM 54.8°F12.7°C 49.1°F9.5°C 81% 3.0 mph SW4.8 kmh SW 6.0 mph9.7 kmh 29.83 in1010.2 mb 0.00 in0.0 mm 0.00 in0.0 mm 0.00 in0.0 mm
08:10 PM 54.8°F12.7°C 49.4°F9.7°C 82% 5.0 mph SSW8.0 kmh SSW 8.0 mph12.9 kmh 29.84 in1010.5 mb 0.00 in0.0 mm 0.00 in0.0 mm 0.00 in0.0 mm
08:20 PM 54.5°F12.5°C 49.4°F9.7°C 83% 3.0 mph SW4.8 kmh SW 7.0 mph11.3 kmh 29.84 in1010.5 mb 0.00 in0.0 mm 0.00 in0.0 mm 0.00 in0.0 mm
08:30 PM 54.2°F12.3°C 49.2°F9.6°C 83% 3.0 mph SW4.8 kmh SW 6.0 mph9.7 kmh 29.84 in1010.5 mb 0.00 in0.0 mm 0.00 in0.0 mm 0.00 in0.0 mm
08:40 PM 54.2°F12.3°C 49.1°F9.5°C 83% 5.0 mph SW8.0 kmh SW 8.0 mph12.9 kmh 29.84 in1010.5 mb 0.00 in0.0 mm 0.00 in0.0 mm 0.00 in0.0 mm
08:50 PM 54.2°F12.3°C 49.5°F9.7°C 84% 6.0 mph SW9.7 kmh SW 8.0 mph12.9 kmh 29.85 in1010.8 mb 0.00 in0.0 mm 0.00 in0.0 mm 0.00 in0.0 mm
09:00 PM 54.5°F12.5°C 49.8°F9.9°C 84% 6.0 mph SW9.7 kmh SW 9.0 mph14.5 kmh 29.85 in1010.8 mb 0.00 in0.0 mm 0.00 in0.0 mm 0.00 in0.0 mm
09:10 PM 55.0°F12.8°C 49.9°F9.9°C 83% 7.0 mph SW11.3 kmh SW 12.0 mph19.3 kmh 29.86 in1011.2 mb 0.00 in0.0 mm 0.00 in0.0 mm 0.00 in0.0 mm
09:20 PM 55.1°F12.8°C 49.4°F9.7°C 81% 5.0 mph SW8.0 kmh SW 7.0 mph11.3 kmh 29.86 in1011.2 mb 0.00 in0.0 mm 0.00 in0.0 mm 0.00 in0.0 mm
09:30 PM 54.9°F12.7°C 49.5°F9.7°C 82% 6.0 mph SSW9.7 kmh SSW 12.0 mph19.3 kmh 29.86 in1011.2 mb 0.00 in0.0 mm 0.00 in0.0 mm 0.00 in0.0 mm
09:40 PM 54.6°F12.6°C 49.2°F9.6°C 82% 7.0 mph SW11.3 kmh SW 12.0 mph19.3 kmh 29.87 in1011.5 mb 0.00 in0.0 mm 0.00 in0.0 mm 0.00 in0.0 mm
09:50 PM 54.4°F12.4°C 49.0°F9.4°C 82% 5.0 mph SW8.0 kmh SW 9.0 mph14.5 kmh 29.87 in1011.5 mb 0.00 in0.0 mm 0.00 in0.0 mm 0.00 in0.0 mm
10:00 PM 54.0°F12.2°C 49.0°F9.4°C 83% 5.0 mph SW8.0 kmh SW 8.0 mph12.9 kmh 29.88 in1011.9 mb 0.00 in0.0 mm 0.00 in0.0 mm 0.00 in0.0 mm
10:10 PM 53.8°F12.1°C 49.1°F9.5°C 84% 6.0 mph SW9.7 kmh SW 10.0 mph16.1 kmh 29.88 in1011.9 mb 0.00 in0.0 mm 0.00 in0.0 mm 0.00 in0.0 mm
10:20 PM 53.7°F12.1°C 49.3°F9.6°C 85% 3.0 mph SSW4.8 kmh SSW 5.0 mph8.0 kmh 29.88 in1011.9 mb 0.00 in0.0 mm 0.00 in0.0 mm 0.00 in0.0 mm
10:30 PM 53.3°F11.8°C 48.9°F9.4°C 85% 3.0 mph SSW4.8 kmh SSW 6.0 mph9.7 kmh 29.88 in1011.9 mb 0.00 in0.0 mm 0.00 in0.0 mm 0.00 in0.0 mm
10:40 PM 52.9°F11.6°C 48.8°F9.3°C 86% 3.0 mph SW4.8 kmh SW 6.0 mph9.7 kmh 29.88 in1011.9 mb 0.00 in0.0 mm 0.00 in0.0 mm 0.00 in0.0 mm
10:50 PM 52.7°F11.5°C 49.0°F9.4°C 87% 5.0 mph WSW8.0 kmh WSW 7.0 mph11.3 kmh 29.88 in1011.9 mb 0.00 in0.0 mm 0.00 in0.0 mm 0.00 in0.0 mm
11:00 PM 52.9°F11.6°C 49.4°F9.7°C 88% 6.0 mph SW9.7 kmh SW 9.0 mph14.5 kmh 29.88 in1011.9 mb 0.00 in0.0 mm 0.00 in0.0 mm 0.00 in0.0 mm
11:10 PM 53.1°F11.7°C 49.6°F9.8°C 88% 6.0 mph SW9.7 kmh SW 8.0 mph12.9 kmh 29.89 in1012.2 mb 0.00 in0.0 mm 0.00 in0.0 mm 0.00 in0.0 mm
11:20 PM 53.0°F11.7°C 49.2°F9.6°C 87% 6.0 mph SW9.7 kmh SW 10.0 mph16.1 kmh 29.89 in1012.2 mb 0.00 in0.0 mm 0.00 in0.0 mm 0.00 in0.0 mm
11:30 PM 53.0°F11.7°C 49.2°F9.6°C 87% 8.0 mph SW12.9 kmh SW 12.0 mph19.3 kmh 29.89 in1012.2 mb 0.00 in0.0 mm 0.00 in0.0 mm 0.00 in0.0 mm
11:40 PM 52.8°F11.6°C 49.0°F9.4°C 87% 5.0 mph SSW8.0 kmh SSW 7.0 mph11.3 kmh 29.89 in1012.2 mb 0.00 in0.0 mm 0.00 in0.0 mm 0.00 in0.0 mm
11:50 PM 52.6°F11.4°C 49.1°F9.5°C 88% 5.0 mph SW8.0 kmh SW 9.0 mph14.5 kmh 29.89 in1012.2 mb 0.00 in0.0 mm 0.00 in0.0 mm 0.00 in0.0 mm